Time;durP1;ratioP1;P1;durP2;ratioP2;P2;SDS_P1;SDS_P2;PMS_P1;PMS_P2;Temp;Humidity;BMP_temperature;BMP_pressure;BME280_temperature;BME280_humidity;BME280_pressure;Samples;Min_cycle;Max_cycle;Signal;HPM_P1;HPM_P2
2022/12/23 00:00:05;;;;;;;6.13;4.30;;;;;;;7.49;100.00;99451.63;5043934;28;20210;-79
2022/12/23 00:02:32;;;;;;;5.03;4.03;;;;;;;7.52;100.00;99453.22;5044080;28;20225;-81
2022/12/23 00:05:00;;;;;;;4.97;3.27;;;;;;;7.55;100.00;99450.31;5054894;28;20201;-80
2022/12/23 00:07:26;;;;;;;5.90;3.80;;;;;;;7.55;100.00;99443.22;5054792;28;20219;-79
2022/12/23 00:09:53;;;;;;;5.97;4.50;;;;;;;7.58;100.00;99444.81;5055032;28;20205;-79
2022/12/23 00:15:06;;;;;;;4.80;3.80;;;;;;;7.59;100.00;99438.56;5055152;28;20200;-81
2022/12/23 00:17:34;;;;;;;4.90;3.67;;;;;;;7.61;100.00;99434.00;5054294;28;20253;-81
2022/12/23 00:20:02;;;;;;;4.87;3.23;;;;;;;7.64;100.00;99434.66;5054870;28;20194;-81
2022/12/23 00:25:13;;;;;;;3.53;3.10;;;;;;;7.70;100.00;99432.53;5042988;28;20202;-80
2022/12/23 00:27:40;;;;;;;3.10;2.50;;;;;;;7.70;100.00;99438.69;5058593;28;20213;-81
2022/12/23 00:30:10;;;;;;;2.80;2.50;;;;;;;7.73;100.00;99432.28;5039000;28;20199;-80
2022/12/23 00:32:36;;;;;;;2.60;2.33;;;;;;;7.76;100.00;99434.72;5040871;28;20723;-82
2022/12/23 00:35:05;;;;;;;2.70;2.30;;;;;;;7.77;100.00;99436.41;5053877;28;20676;-82
2022/12/23 00:37:31;;;;;;;2.60;2.10;;;;;;;7.80;100.00;99436.22;5040078;28;20597;-81
2022/12/23 00:42:53;;;;;;;2.70;2.07;;;;;;;7.83;100.00;99439.50;4997178;28;20230;-81
2022/12/23 00:45:20;;;;;;;3.67;2.50;;;;;;;7.84;100.00;99433.25;5044623;28;20186;-81
2022/12/23 00:50:35;;;;;;;2.50;2.17;;;;;;;7.87;100.00;99429.53;5055219;28;20276;-81
2022/12/23 00:53:02;;;;;;;3.50;2.33;;;;;;;7.87;100.00;99432.19;5038315;28;20574;-81
2022/12/23 00:55:28;;;;;;;3.50;2.43;;;;;;;7.89;100.00;99425.78;5039883;28;20209;-83
2022/12/23 00:57:55;;;;;;;2.33;1.90;;;;;;;7.90;100.00;99426.63;5053783;28;20838;-80
2022/12/23 01:05:35;;;;;;;3.63;2.20;;;;;;;7.92;100.00;99414.13;5058540;28;20586;-81
2022/12/23 01:05:59;;;;;;;2.43;2.10;;;;;;;7.97;100.00;99418.13;5033398;28;20775;-82
2022/12/23 01:08:25;;;;;;;3.13;2.03;;;;;;;7.98;100.00;99419.00;5044176;28;20205;-82
2022/12/23 01:10:52;;;;;;;2.80;2.40;;;;;;;8.00;100.00;99419.72;5053547;28;20213;-80
2022/12/23 01:13:19;;;;;;;2.70;2.20;;;;;;;7.99;100.00;99420.69;5061981;28;20225;-81
2022/12/23 01:15:45;;;;;;;2.53;2.13;;;;;;;8.00;100.00;99428.53;5068019;28;20209;-82
2022/12/23 01:18:12;;;;;;;2.70;2.47;;;;;;;7.99;100.00;99428.63;5064774;28;20240;-81
2022/12/23 01:20:38;;;;;;;3.33;2.50;;;;;;;7.99;100.00;99416.22;5053775;28;20208;-83
2022/12/23 01:23:07;;;;;;;5.10;3.10;;;;;;;8.01;100.00;99424.06;5053068;28;20225;-80
2022/12/23 01:25:33;;;;;;;2.90;2.40;;;;;;;8.02;100.00;99423.97;5041866;28;20657;-81
2022/12/23 01:28:00;;;;;;;2.80;2.50;;;;;;;8.05;100.00;99427.34;5033270;28;20214;-80
2022/12/23 01:30:26;;;;;;;3.30;2.70;;;;;;;8.06;100.00;99429.88;5042664;28;20292;-82
2022/12/23 01:32:53;;;;;;;2.83;2.57;;;;;;;8.10;100.00;99428.69;5053249;28;20221;-80
2022/12/23 01:35:19;;;;;;;3.20;2.90;;;;;;;8.12;100.00;99428.59;5049019;28;20205;-80
2022/12/23 01:37:46;;;;;;;3.47;3.03;;;;;;;8.18;100.00;99429.00;5062103;28;20227;-80
2022/12/23 01:40:13;;;;;;;4.23;3.40;;;;;;;8.22;100.00;99442.88;5069576;28;20204;-81
2022/12/23 01:42:47;;;;;;;4.10;3.40;;;;;;;8.23;100.00;99444.59;5075092;28;20221;-79
2022/12/23 01:45:17;;;;;;;3.63;3.33;;;;;;;8.26;100.00;99441.69;5052245;28;20270;-80
2022/12/23 01:47:48;;;;;;;3.90;3.17;;;;;;;8.26;100.00;99445.19;5043814;28;20633;-80
2022/12/23 01:50:19;;;;;;;4.20;3.67;;;;;;;8.26;100.00;99442.53;5041241;28;20652;-80
2022/12/23 01:52:50;;;;;;;4.60;3.77;;;;;;;8.28;100.00;99443.28;5041806;28;20747;-81
2022/12/23 01:55:23;;;;;;;3.97;3.33;;;;;;;8.30;100.00;99437.84;5052182;28;20562;-79
2022/12/23 01:57:51;;;;;;;4.17;3.60;;;;;;;8.31;100.00;99442.19;5038646;28;20596;-83
2022/12/23 02:05:46;;;;;;;4.47;3.77;;;;;;;8.37;100.00;99446.25;5053273;28;20267;-82
2022/12/23 02:11:27;;;;;;;3.80;3.30;;;;;;;8.41;100.00;99443.28;5051460;28;20277;-84
2022/12/23 02:17:00;;;;;;;5.80;3.80;;;;;;;8.43;100.00;99454.59;5071024;28;20726;-80
2022/12/23 02:19:46;;;;;;;4.30;3.43;;;;;;;8.44;100.00;99461.59;5075227;28;20220;-81
2022/12/23 02:22:39;;;;;;;4.90;4.40;;;;;;;8.45;100.00;99457.13;5056102;28;20232;-82
2022/12/23 02:25:36;;;;;;;4.87;4.17;;;;;;;8.46;100.00;99464.97;5044737;28;20202;-80
2022/12/23 02:28:28;;;;;;;5.47;4.43;;;;;;;8.48;100.00;99459.56;5055022;28;20209;-80
2022/12/23 02:31:01;;;;;;;5.43;4.20;;;;;;;8.48;100.00;99457.75;5043868;28;20193;-81
2022/12/23 02:33:51;;;;;;;5.20;4.23;;;;;;;8.50;100.00;99465.63;5059717;28;20235;-80
2022/12/23 02:36:29;;;;;;;5.37;4.23;;;;;;;8.51;100.00;99467.31;5063327;28;20574;-80
2022/12/23 02:39:02;;;;;;;5.60;4.43;;;;;;;8.52;100.00;99455.72;5076757;28;20185;-82
2022/12/23 02:41:36;;;;;;;6.13;4.47;;;;;;;8.53;100.00;99462.75;5076224;28;20227;-82
2022/12/23 02:44:10;;;;;;;6.17;4.60;;;;;;;8.55;100.00;99463.47;5076501;28;20220;-82
2022/12/23 02:46:45;;;;;;;5.43;4.43;;;;;;;8.57;100.00;99466.88;5074335;28;20228;-80
2022/12/23 02:49:15;;;;;;;6.23;5.43;;;;;;;8.58;100.00;99457.94;5036420;28;20605;-81
2022/12/23 02:51:46;;;;;;;5.07;3.80;;;;;;;8.59;100.00;99455.19;5056795;28;20736;-80
2022/12/23 02:54:17;;;;;;;5.20;4.67;;;;;;;8.60;100.00;99472.78;5056812;28;20221;-82
2022/12/23 02:56:49;;;;;;;5.13;4.63;;;;;;;8.62;100.00;99464.69;5037885;28;20194;-82
2022/12/23 02:59:19;;;;;;;5.47;4.80;;;;;;;8.62;100.00;99468.19;5045319;28;20308;-81
2022/12/23 03:01:48;;;;;;;6.27;5.10;;;;;;;8.62;100.00;99472.66;5041326;28;20536;-82
2022/12/23 03:04:15;;;;;;;6.97;5.03;;;;;;;8.62;100.00;99462.03;5067153;28;20215;-80
2022/12/23 03:06:44;;;;;;;5.13;4.63;;;;;;;8.63;100.00;99471.69;5065149;28;20202;-80
2022/12/23 03:09:20;;;;;;;6.40;4.83;;;;;;;8.64;100.00;99468.09;5056688;28;20212;-80
2022/12/23 03:11:56;;;;;;;5.93;5.33;;;;;;;8.62;100.00;99473.50;5057637;28;20572;-81
2022/12/23 03:14:36;;;;;;;8.33;5.53;;;;;;;8.62;100.00;99473.50;5058174;28;20632;-81
2022/12/23 03:17:18;;;;;;;8.00;6.03;;;;;;;8.62;100.00;99468.19;5058061;28;20691;-81
2022/12/23 03:19:51;;;;;;;8.13;5.60;;;;;;;8.64;100.00;99468.09;5045640;28;20205;-79
2022/12/23 03:22:24;;;;;;;7.37;5.67;;;;;;;8.66;100.00;99474.13;5055541;28;20243;-82
2022/12/23 03:24:55;;;;;;;8.20;6.40;;;;;;;8.65;100.00;99475.94;5058234;28;20779;-80
2022/12/23 03:27:27;;;;;;;13.07;6.57;;;;;;;8.66;100.00;99468.81;5038721;28;20194;-80
2022/12/23 03:29:57;;;;;;;9.10;6.80;;;;;;;8.67;100.00;99467.88;5035574;28;20683;-80
2022/12/23 03:32:29;;;;;;;10.57;7.00;;;;;;;8.69;100.00;99466.78;5054141;28;20222;-81
2022/12/23 03:34:59;;;;;;;8.03;6.27;;;;;;;8.71;100.00;99466.69;5066501;28;20208;-81
2022/12/23 03:37:28;;;;;;;9.47;6.97;;;;;;;8.71;100.00;99458.72;5061778;28;20220;-82
2022/12/23 03:40:02;;;;;;;9.77;7.30;;;;;;;8.73;100.00;99463.91;5070904;28;20593;-80
2022/12/23 03:42:33;;;;;;;11.87;8.40;;;;;;;8.72;100.00;99463.06;5045772;28;20226;-82
2022/12/23 03:45:05;;;;;;;11.23;7.97;;;;;;;8.72;100.00;99464.88;5047606;28;20193;-78
2022/12/23 03:47:38;;;;;;;14.33;8.17;;;;;;;8.72;100.00;99465.72;5061135;28;20205;-80
2022/12/23 03:50:09;;;;;;;12.67;8.63;;;;;;;8.75;100.00;99469.97;5059131;28;20236;-80
2022/12/23 03:52:40;;;;;;;10.20;8.60;;;;;;;8.75;100.00;99472.63;5045487;28;20226;-82
2022/12/23 03:55:11;;;;;;;13.43;8.93;;;;;;;8.76;100.00;99469.84;5043182;28;20206;-81
2022/12/23 03:57:43;;;;;;;11.83;8.27;;;;;;;8.80;100.00;99475.75;5056517;28;20201;-81
2022/12/23 04:00:11;;;;;;;11.17;8.43;;;;;;;8.79;100.00;99469.59;5038206;28;20193;-83
2022/12/23 04:02:45;;;;;;;13.57;8.57;;;;;;;8.80;100.00;99473.09;5049829;28;20222;-83
2022/12/23 04:05:23;;;;;;;10.93;8.40;;;;;;;8.80;100.00;99481.06;5075618;28;20261;-80
2022/12/23 04:07:54;;;;;;;12.40;8.10;;;;;;;8.81;100.00;99488.91;5064294;28;20202;-80
2022/12/23 04:10:22;;;;;;;11.17;7.73;;;;;;;8.81;100.00;99483.59;5057281;28;20208;-81
2022/12/23 04:12:49;;;;;;;12.03;8.67;;;;;;;8.83;100.00;99492.31;5057189;28;20597;-81
2022/12/23 04:15:20;;;;;;;9.10;7.60;;;;;;;8.82;100.00;99493.28;5057604;28;20210;-79
2022/12/23 04:17:49;;;;;;;11.63;7.07;;;;;;;8.82;100.00;99492.41;5061234;28;20222;-82
2022/12/23 04:20:16;;;;;;;11.07;7.20;;;;;;;8.83;100.00;99502.94;5050904;28;20208;-82
2022/12/23 04:22:43;;;;;;;8.10;6.83;;;;;;;8.84;100.00;99495.81;5073709;28;20707;-79
2022/12/23 04:25:11;;;;;;;10.30;6.90;;;;;;;8.84;100.00;99501.13;5049192;28;20297;-81
2022/12/23 04:27:38;;;;;;;9.67;6.90;;;;;;;8.82;100.00;99503.03;5036580;28;20665;-82
2022/12/23 04:30:06;;;;;;;7.23;6.33;;;;;;;8.85;100.00;99502.81;5051420;28;20213;-82
2022/12/23 04:32:32;;;;;;;7.90;6.23;;;;;;;8.85;100.00;99500.16;5069772;28;20226;-80
2022/12/23 04:35:00;;;;;;;8.30;5.80;;;;;;;8.86;100.00;99493.91;5055987;28;20217;-82
2022/12/23 04:37:27;;;;;;;6.80;5.67;;;;;;;8.86;100.00;99497.41;5045136;28;20209;-81
2022/12/23 04:39:53;;;;;;;7.90;5.43;;;;;;;8.86;100.00;99500.06;5058106;28;20604;-81
2022/12/23 04:42:20;;;;;;;7.07;5.90;;;;;;;8.86;100.00;99499.19;5066696;28;20217;-81
2022/12/23 04:44:46;;;;;;;7.83;6.27;;;;;;;8.85;100.00;99508.97;5055977;28;20220;-82
2022/12/23 04:47:13;;;;;;;9.87;6.40;;;;;;;8.86;100.00;99520.44;5042965;28;20209;-82
2022/12/23 04:49:39;;;;;;;9.03;6.73;;;;;;;8.85;100.00;99535.53;5044647;28;20210;-81
2022/12/23 04:52:07;;;;;;;9.03;6.20;;;;;;;8.84;100.00;99523.22;5044497;28;20213;-82
2022/12/23 04:54:33;;;;;;;7.10;5.70;;;;;;;8.84;100.00;99531.16;5047340;28;20205;-81
2022/12/23 04:57:00;;;;;;;6.73;5.67;;;;;;;8.82;100.00;99530.44;5052919;28;20210;-81
2022/12/23 04:59:26;;;;;;;5.57;3.87;;;;;;;8.81;100.00;99526.09;5054618;28;20236;-81
2022/12/23 05:01:53;;;;;;;5.63;3.73;;;;;;;8.80;100.00;99528.84;5048792;28;20209;-79
2022/12/23 05:04:19;;;;;;;3.80;2.40;;;;;;;8.80;100.00;99531.50;5056055;28;20212;-81
2022/12/23 05:06:46;;;;;;;3.63;2.77;;;;;;;8.78;100.00;99531.63;5048176;28;20210;-81
2022/12/23 05:09:14;;;;;;;3.60;2.50;;;;;;;8.77;100.00;99543.22;5035569;28;20206;-83
2022/12/23 05:11:40;;;;;;;2.30;1.90;;;;;;;8.76;100.00;99538.88;5043929;28;20202;-82
2022/12/23 05:14:09;;;;;;;3.13;2.27;;;;;;;8.76;100.00;99546.00;5052827;28;20217;-81
2022/12/23 05:16:35;;;;;;;2.80;2.10;;;;;;;8.74;100.00;99543.44;5062112;28;20664;-82
2022/12/23 05:19:02;;;;;;;3.53;2.60;;;;;;;8.74;100.00;99547.91;5049344;28;20226;-81
2022/12/23 05:21:28;;;;;;;3.50;2.23;;;;;;;8.71;100.00;99554.28;5054198;28;20294;-80
2022/12/23 05:23:56;;;;;;;4.40;2.47;;;;;;;8.72;100.00;99552.47;5042088;28;20236;-80
2022/12/23 05:26:23;;;;;;;3.30;2.33;;;;;;;8.70;100.00;99557.91;5044971;28;20240;-82
2022/12/23 05:28:50;;;;;;;3.90;3.20;;;;;;;8.69;100.00;99558.84;5040976;28;20200;-81
2022/12/23 05:31:17;;;;;;;4.20;2.60;;;;;;;8.67;100.00;99563.41;5045747;28;20767;-80
2022/12/23 05:33:43;;;;;;;3.73;2.57;;;;;;;8.65;100.00;99562.69;5053428;28;20232;-80
2022/12/23 05:36:11;;;;;;;3.20;2.30;;;;;;;8.62;100.00;99573.50;5050205;28;20208;-82
2022/12/23 05:38:37;;;;;;;3.10;2.20;;;;;;;8.62;100.00;99566.41;5050884;28;20229;-79
2022/12/23 05:41:04;;;;;;;2.77;2.33;;;;;;;8.60;100.00;99568.31;5048057;28;20207;-82
2022/12/23 05:43:32;;;;;;;2.63;2.03;;;;;;;8.59;100.00;99573.75;5055858;28;20217;-81
2022/12/23 05:46:00;;;;;;;2.57;2.00;;;;;;;8.59;100.00;99587.03;5055540;28;20675;-80
2022/12/23 05:48:26;;;;;;;3.73;2.70;;;;;;;8.59;100.00;99587.03;5054593;28;20220;-81
2022/12/23 05:50:53;;;;;;;3.47;2.80;;;;;;;8.58;100.00;99585.34;5050495;28;20245;-82
2022/12/23 05:53:20;;;;;;;4.10;3.30;;;;;;;8.55;100.00;99591.69;5039110;28;20499;-82
2022/12/23 05:55:47;;;;;;;5.87;3.77;;;;;;;8.54;100.00;99597.13;5038396;28;20201;-81
2022/12/23 05:58:13;;;;;;;5.50;3.83;;;;;;;8.52;100.00;99601.69;5038290;28;20623;-82
2022/12/23 06:00:41;;;;;;;5.27;3.13;;;;;;;8.50;100.00;99598.28;5038879;28;20213;-82
2022/12/23 06:03:08;;;;;;;5.40;4.07;;;;;;;8.48;100.00;99598.41;5037867;28;20245;-83
2022/12/23 06:05:36;;;;;;;6.20;4.90;;;;;;;8.45;100.00;99601.25;5041139;28;20206;-82
2022/12/23 06:08:03;;;;;;;7.03;4.90;;;;;;;8.44;100.00;99607.53;5058157;28;20211;-83
2022/12/23 06:10:29;;;;;;;6.93;5.13;;;;;;;8.44;100.00;99606.69;5050720;28;20210;-81
2022/12/23 06:12:56;;;;;;;6.93;5.20;;;;;;;8.41;100.00;99607.78;5051684;28;20221;-82
2022/12/23 06:15:22;;;;;;;6.93;5.30;;;;;;;8.38;100.00;99605.31;5058185;28;20202;-81
2022/12/23 06:17:50;;;;;;;8.30;5.33;;;;;;;8.37;100.00;99602.78;5057187;28;20217;-82
2022/12/23 06:20:17;;;;;;;8.87;6.67;;;;;;;8.33;100.00;99608.28;5045703;28;20210;-82
2022/12/23 06:22:43;;;;;;;8.30;6.53;;;;;;;8.31;100.00;99614.63;5037694;28;20782;-83
2022/12/23 06:25:10;;;;;;;7.40;5.83;;;;;;;8.29;100.00;99617.38;5053606;28;20678;-82
2022/12/23 06:27:36;;;;;;;9.70;6.10;;;;;;;8.27;100.00;99618.44;5078150;28;20292;-82
2022/12/23 06:30:03;;;;;;;8.73;6.53;;;;;;;8.26;100.00;99627.34;5065747;28;20205;-81
2022/12/23 06:32:29;;;;;;;9.47;7.13;;;;;;;8.23;100.00;99631.09;5039215;28;20222;-83
2022/12/23 06:34:57;;;;;;;9.73;7.43;;;;;;;8.22;100.00;99633.84;5036954;28;20206;-83
2022/12/23 06:37:24;;;;;;;10.47;7.30;;;;;;;8.20;100.00;99633.97;5074464;28;20250;-84
2022/12/23 06:39:51;;;;;;;11.00;7.57;;;;;;;8.18;100.00;99630.56;5051480;28;20232;-82
2022/12/23 06:42:17;;;;;;;11.03;8.23;;;;;;;8.16;100.00;99645.72;5057651;28;20335;-83
2022/12/23 06:44:44;;;;;;;11.70;7.67;;;;;;;8.14;100.00;99652.09;5057410;28;20213;-81
2022/12/23 06:47:10;;;;;;;11.90;7.93;;;;;;;8.13;100.00;99650.41;5057551;28;20234;-84
2022/12/23 06:49:37;;;;;;;11.40;8.00;;;;;;;8.10;100.00;99664.72;5057773;28;20206;-83
2022/12/23 06:52:05;;;;;;;12.07;8.73;;;;;;;8.08;100.00;99656.00;5057637;28;20217;-81
2022/12/23 06:54:31;;;;;;;11.70;7.87;;;;;;;8.06;100.00;99663.22;5057408;28;20202;-80
2022/12/23 06:56:58;;;;;;;12.47;8.40;;;;;;;8.04;100.00;99669.59;5057006;28;20212;-83
2022/12/23 06:59:24;;;;;;;12.57;8.63;;;;;;;8.04;100.00;99669.59;5057157;28;20226;-81
2022/12/23 07:01:51;;;;;;;12.30;8.17;;;;;;;8.02;100.00;99669.72;5057290;28;20210;-80
2022/12/23 07:04:17;;;;;;;12.10;8.43;;;;;;;8.00;100.00;99680.41;5051814;28;20222;-82
2022/12/23 07:06:44;;;;;;;12.33;8.53;;;;;;;7.98;100.00;99684.97;5037256;28;20239;-82
2022/12/23 07:09:12;;;;;;;12.87;9.03;;;;;;;7.96;100.00;99686.88;5037381;28;20213;-82
2022/12/23 07:11:38;;;;;;;12.03;8.67;;;;;;;7.95;100.00;99690.47;5072168;28;20212;-81
2022/12/23 07:14:05;;;;;;;15.03;9.70;;;;;;;7.94;100.00;99694.06;5075923;28;20640;-82
2022/12/23 07:16:31;;;;;;;13.93;9.50;;;;;;;7.91;100.00;99696.94;5062644;28;20201;-82
2022/12/23 07:18:57;;;;;;;15.73;9.03;;;;;;;7.89;100.00;99692.69;5056322;28;20602;-82
2022/12/23 07:21:24;;;;;;;14.97;9.13;;;;;;;7.88;100.00;99699.78;5057288;28;20599;-80
2022/12/23 07:23:50;;;;;;;13.23;9.33;;;;;;;7.85;100.00;99696.50;5056732;28;20253;-79
2022/12/23 07:26:18;;;;;;;15.93;9.50;;;;;;;7.84;100.00;99705.41;5056839;28;20293;-81
2022/12/23 07:28:47;;;;;;;13.57;9.07;;;;;;;7.80;100.00;99704.75;5056478;28;20202;-81
2022/12/23 07:31:13;;;;;;;14.07;9.00;;;;;;;7.80;100.00;99714.53;5056531;28;20794;-80
2022/12/23 07:33:39;;;;;;;13.80;9.13;;;;;;;7.78;100.00;99716.41;5056262;28;20229;-82
2022/12/23 07:36:07;;;;;;;14.00;8.80;;;;;;;7.78;100.00;99722.56;5051004;28;20228;-81
2022/12/23 07:38:33;;;;;;;14.30;9.83;;;;;;;7.79;100.00;99720.78;5038058;28;20226;-79
2022/12/23 07:41:00;;;;;;;14.47;9.63;;;;;;;7.76;100.00;99719.16;5038013;28;20206;-79
2022/12/23 07:43:27;;;;;;;15.43;9.13;;;;;;;7.75;100.00;99721.91;5058068;28;20256;-80
2022/12/23 07:45:54;;;;;;;16.07;9.37;;;;;;;7.73;100.00;99729.13;5042995;28;20213;-80
2022/12/23 07:48:20;;;;;;;17.00;9.73;;;;;;;7.72;100.00;99730.06;5052700;28;20208;-80
2022/12/23 07:50:47;;;;;;;13.37;8.60;;;;;;;7.69;100.00;99733.78;5055659;28;20209;-82
2022/12/23 07:53:13;;;;;;;16.53;10.67;;;;;;;7.69;100.00;99732.94;5055824;28;20283;-82
2022/12/23 07:55:40;;;;;;;15.63;10.30;;;;;;;7.69;100.00;99743.53;5036773;28;20210;-82
2022/12/23 07:58:07;;;;;;;16.67;10.60;;;;;;;7.68;100.00;99741.84;5042658;28;20205;-81
2022/12/23 08:00:35;;;;;;;14.73;9.97;;;;;;;7.66;100.00;99745.44;5055750;28;20228;-80
2022/12/23 08:03:03;;;;;;;16.20;10.40;;;;;;;7.65;100.00;99741.09;5055328;28;20275;-83
2022/12/23 08:05:30;;;;;;;15.60;10.33;;;;;;;7.65;100.00;99743.75;5055849;28;20236;-81
2022/12/23 08:07:56;;;;;;;16.47;9.60;;;;;;;7.64;100.00;99751.78;5041958;28;20252;-81
2022/12/23 08:10:23;;;;;;;15.90;10.20;;;;;;;7.66;100.00;99760.50;5055087;28;20649;-82
2022/12/23 08:12:49;;;;;;;14.83;9.90;;;;;;;7.66;100.00;99756.03;5054989;28;20237;-82
2022/12/23 08:15:16;;;;;;;16.27;10.13;;;;;;;7.65;100.00;99754.34;5056398;28;20209;-80
2022/12/23 08:17:43;;;;;;;17.37;10.60;;;;;;;7.66;100.00;99761.34;5060145;28;20221;-82
2022/12/23 08:20:11;;;;;;;17.03;10.47;;;;;;;7.66;100.00;99758.69;5056248;28;20214;-81
2022/12/23 08:22:37;;;;;;;17.97;10.10;;;;;;;7.66;100.00;99764.00;5037180;28;20733;-82
2022/12/23 08:25:05;;;;;;;15.20;9.97;;;;;;;7.67;100.00;99767.50;5049242;28;20210;-81
2022/12/23 08:27:32;;;;;;;15.80;10.17;;;;;;;7.67;100.00;99772.78;5035875;28;20230;-81
2022/12/23 08:29:58;;;;;;;14.73;9.03;;;;;;;7.67;100.00;99772.78;5050319;28;20563;-81
2022/12/23 08:32:26;;;;;;;15.30;9.60;;;;;;;7.68;100.00;99773.66;5053917;28;20226;-81
2022/12/23 08:34:55;;;;;;;14.87;8.83;;;;;;;7.67;100.00;99778.09;5055700;28;20205;-80
2022/12/23 08:37:22;;;;;;;14.63;9.27;;;;;;;7.65;100.00;99777.34;5053183;28;20208;-81
2022/12/23 08:39:48;;;;;;;15.77;8.70;;;;;;;7.65;100.00;99793.25;5038428;28;20593;-83
2022/12/23 08:42:15;;;;;;;14.07;8.07;;;;;;;7.63;100.00;99785.38;5055670;28;20564;-81
2022/12/23 08:44:41;;;;;;;14.73;9.07;;;;;;;7.63;100.00;99788.03;5054357;28;20586;-83
2022/12/23 08:47:07;;;;;;;17.37;9.50;;;;;;;7.65;100.00;99790.59;5058675;28;20202;-80
2022/12/23 08:49:35;;;;;;;12.50;8.73;;;;;;;7.65;100.00;99787.94;5054292;28;20206;-81
2022/12/23 08:52:06;;;;;;;13.00;7.97;;;;;;;7.65;100.00;99802.03;5045140;28;20246;-83
2022/12/23 08:54:34;;;;;;;13.77;8.30;;;;;;;7.66;100.00;99802.91;5054737;28;20236;-80
2022/12/23 08:57:00;;;;;;;12.17;8.33;;;;;;;7.66;100.00;99797.59;5054161;28;20201;-81
2022/12/23 08:59:27;;;;;;;14.63;9.33;;;;;;;7.66;100.00;99798.44;5054589;28;20225;-82
2022/12/23 09:01:53;;;;;;;16.70;8.70;;;;;;;7.66;100.00;99798.44;5048972;28;20198;-82
2022/12/23 09:04:20;;;;;;;13.53;8.80;;;;;;;7.66;100.00;99803.75;5046293;28;20226;-82
2022/12/23 09:06:46;;;;;;;13.57;8.50;;;;;;;7.66;100.00;99806.41;5054680;28;20664;-81
2022/12/23 09:09:15;;;;;;;15.30;9.30;;;;;;;7.68;100.00;99805.44;5054592;28;20244;-81
2022/12/23 09:11:41;;;;;;;11.90;8.20;;;;;;;7.68;100.00;99810.75;5054657;28;20266;-81
2022/12/23 09:14:09;;;;;;;13.33;8.50;;;;;;;7.69;100.00;99809.81;5047356;28;20218;-80
2022/12/23 09:16:35;;;;;;;13.80;9.03;;;;;;;7.68;100.00;99810.75;5035076;28;20217;-80
2022/12/23 09:19:02;;;;;;;15.10;9.43;;;;;;;7.69;100.00;99812.44;5052669;28;20700;-80
2022/12/23 09:21:29;;;;;;;17.27;10.00;;;;;;;7.69;100.00;99812.44;5046624;28;20210;-81
2022/12/23 09:23:55;;;;;;;15.73;8.90;;;;;;;7.70;100.00;99809.72;5050929;28;20250;-81
2022/12/23 09:26:28;;;;;;;14.37;9.77;;;;;;;7.71;100.00;99806.06;5047732;28;20205;-82
2022/12/23 09:28:56;;;;;;;15.00;9.67;;;;;;;7.72;100.00;99806.94;5044535;28;20194;-80
2022/12/23 09:31:24;;;;;;;15.03;8.77;;;;;;;7.73;100.00;99813.94;5053066;28;20378;-81
2022/12/23 09:33:52;;;;;;;13.40;8.90;;;;;;;7.73;100.00;99805.97;5055009;28;20237;-82
2022/12/23 09:36:20;;;;;;;14.70;9.47;;;;;;;7.73;100.00;99808.63;5054644;28;20619;-81
2022/12/23 09:38:47;;;;;;;17.57;10.20;;;;;;;7.74;100.00;99823.59;5038481;28;20209;-82
2022/12/23 09:41:30;;;;;;;16.37;10.00;;;;;;;7.73;100.00;99817.44;5054054;28;20203;-81
2022/12/23 09:44:04;;;;;;;16.07;9.50;;;;;;;7.73;100.00;99820.09;5034474;28;20230;-82
2022/12/23 09:46:33;;;;;;;14.33;9.10;;;;;;;7.74;100.00;99823.59;5046709;28;20205;-82
2022/12/23 09:49:04;;;;;;;14.33;9.57;;;;;;;7.72;100.00;99812.22;5034804;28;20202;-80
2022/12/23 09:51:32;;;;;;;17.97;10.30;;;;;;;7.73;100.00;99813.94;5062820;28;20675;-82
2022/12/23 09:54:05;;;;;;;16.00;9.63;;;;;;;7.73;100.00;99819.22;5048620;28;20244;-80
2022/12/23 09:56:39;;;;;;;17.57;11.10;;;;;;;7.71;100.00;99829.06;5070956;28;20557;-81
2022/12/23 09:59:19;;;;;;;18.70;11.90;;;;;;;7.72;100.00;99817.53;5044329;28;20190;-82
2022/12/23 10:01:51;;;;;;;20.17;13.63;;;;;;;7.73;100.00;99820.09;5057757;28;20208;-81
2022/12/23 10:04:34;;;;;;;18.90;12.73;;;;;;;7.74;100.00;99823.59;5052505;28;20225;-82
2022/12/23 10:07:17;;;;;;;19.10;11.63;;;;;;;7.75;100.00;99827.94;5034031;28;20190;-82
2022/12/23 10:09:48;;;;;;;20.00;12.20;;;;;;;7.76;100.00;99827.84;5035362;28;20214;-81
2022/12/23 10:12:22;;;;;;;22.93;13.13;;;;;;;7.77;100.00;99826.88;5068019;28;20560;-81
2022/12/23 10:14:51;;;;;;;19.73;11.90;;;;;;;7.79;100.00;99827.66;5057911;28;20205;-82
2022/12/23 10:17:28;;;;;;;21.93;11.97;;;;;;;7.81;100.00;99822.25;5050078;28;20211;-81
2022/12/23 10:20:00;;;;;;;19.97;11.97;;;;;;;7.84;100.00;99824.72;5067452;28;20209;-82
2022/12/23 10:22:34;;;;;;;21.23;12.10;;;;;;;7.86;100.00;99825.47;5064606;28;20262;-81
2022/12/23 10:25:03;;;;;;;24.07;12.37;;;;;;;7.88;100.00;99820.91;5045949;28;20773;-81
2022/12/23 10:27:34;;;;;;;22.43;12.03;;;;;;;7.91;100.00;99818.03;5039342;28;20237;-82
2022/12/23 10:30:07;;;;;;;24.50;12.70;;;;;;;7.92;100.00;99812.63;5034641;28;20183;-80
2022/12/23 10:32:43;;;;;;;22.33;11.67;;;;;;;7.94;100.00;99813.38;5047874;28;20601;-82
2022/12/23 10:35:20;;;;;;;23.83;11.93;;;;;;;7.96;100.00;99806.19;5057159;28;20212;-82
2022/12/23 10:37:51;;;;;;;22.60;11.87;;;;;;;7.97;100.00;99810.53;5049035;28;20205;-80
2022/12/23 10:40:23;;;;;;;23.47;13.17;;;;;;;8.00;100.00;99817.44;5058460;28;20221;-79
2022/12/23 10:43:02;;;;;;;25.33;13.07;;;;;;;8.02;100.00;99804.94;5051782;28;20621;-82
2022/12/23 10:45:40;;;;;;;23.90;11.73;;;;;;;8.02;100.00;99802.28;5044454;28;20216;-82
2022/12/23 10:48:17;;;;;;;22.93;12.37;;;;;;;8.03;100.00;99796.03;5055822;28;20208;-81
2022/12/23 10:50:57;;;;;;;21.57;11.77;;;;;;;8.04;100.00;99796.88;5054641;28;20198;-80
2022/12/23 10:53:35;;;;;;;25.17;12.23;;;;;;;8.04;100.00;99791.59;5054732;28;20225;-81
2022/12/23 10:56:03;;;;;;;21.13;11.83;;;;;;;8.03;100.00;99785.44;5053117;28;20213;-82
2022/12/23 10:58:41;;;;;;;23.80;12.40;;;;;;;8.02;100.00;99789.03;5054681;28;20582;-79
2022/12/23 11:01:08;;;;;;;25.83;13.03;;;;;;;8.02;100.00;99784.56;5050917;28;20209;-81
2022/12/23 11:03:40;;;;;;;23.13;12.73;;;;;;;8.04;100.00;99787.13;5051647;28;20230;-82
2022/12/23 11:06:12;;;;;;;24.07;13.23;;;;;;;8.04;100.00;99795.09;5052070;28;20221;-80
2022/12/23 11:08:39;;;;;;;22.77;11.93;;;;;;;8.04;100.00;99789.78;5045312;28;20205;-81
2022/12/23 11:11:06;;;;;;;25.27;13.27;;;;;;;8.04;100.00;99803.03;5054643;28;20571;-81
2022/12/23 11:13:37;;;;;;;24.67;12.40;;;;;;;8.04;100.00;99794.22;5052219;28;20225;-82
2022/12/23 11:16:22;;;;;;;24.20;12.40;;;;;;;8.04;100.00;99797.75;5060167;28;20208;-80
2022/12/23 11:18:57;;;;;;;24.30;13.10;;;;;;;8.02;100.00;99800.50;5049226;28;20216;-82
2022/12/23 11:21:25;;;;;;;26.83;13.33;;;;;;;8.00;100.00;99804.19;5052367;28;20205;-83
2022/12/23 11:24:13;;;;;;;26.30;13.03;;;;;;;8.00;100.00;99805.03;5041116;28;20253;-81
2022/12/23 11:26:40;;;;;;;25.03;13.43;;;;;;;7.99;100.00;99807.78;5051670;28;20212;-82
2022/12/23 11:29:12;;;;;;;25.90;13.53;;;;;;;7.98;100.00;99798.97;5048853;28;20198;-84
2022/12/23 11:31:39;;;;;;;27.73;13.57;;;;;;;7.99;100.00;99799.84;5043232;28;20569;-79
2022/12/23 11:34:13;;;;;;;21.10;11.63;;;;;;;7.99;100.00;99791.88;5048945;28;20222;-80
2022/12/23 11:36:41;;;;;;;25.53;12.80;;;;;;;7.99;100.00;99789.22;5039855;28;20205;-80
2022/12/23 11:39:19;;;;;;;24.73;13.60;;;;;;;7.97;100.00;99786.66;5050880;28;20217;-82
2022/12/23 11:41:49;;;;;;;21.40;12.37;;;;;;;7.98;100.00;99777.78;5056439;28;20218;-83
2022/12/23 11:44:22;;;;;;;21.50;11.50;;;;;;;7.99;100.00;99781.28;5050351;28;20229;-82
2022/12/23 11:46:49;;;;;;;22.50;11.90;;;;;;;7.99;100.00;99778.63;5044662;28;20202;-82
2022/12/23 11:49:18;;;;;;;23.20;12.47;;;;;;;7.99;100.00;99778.63;5052579;28;20790;-83
2022/12/23 11:51:47;;;;;;;20.73;12.40;;;;;;;7.99;100.00;99771.53;5054992;28;20542;-82
2022/12/23 11:54:19;;;;;;;23.40;12.60;;;;;;;7.98;100.00;99764.50;5056106;28;20774;-82
2022/12/23 11:56:49;;;;;;;23.73;13.17;;;;;;;7.99;100.00;99766.22;5055854;28;20213;-83
2022/12/23 11:59:28;;;;;;;23.33;12.83;;;;;;;8.00;100.00;99765.25;5052402;28;20205;-80
2022/12/23 12:01:57;;;;;;;26.33;12.83;;;;;;;8.01;100.00;99755.50;5047151;28;20197;-80